createdAt,value
2019-04-28T00:02:56.063Z,90.20
2019-04-28T00:17:56.211Z,92.61
2019-04-28T00:32:56.531Z,94.71
2019-04-28T00:47:56.729Z,93.60
2019-04-28T01:02:57.101Z,94.98
2019-04-28T01:17:57.368Z,94.15
2019-04-28T01:32:59.607Z,95.02
2019-04-28T01:48:01.801Z,94.05
2019-04-28T02:03:02.993Z,94.26
2019-04-28T02:18:03.378Z,92.21
2019-04-28T02:33:03.497Z,92.78
2019-04-28T02:48:03.620Z,91.33
2019-04-28T03:03:04.272Z,90.30
2019-04-28T03:18:04.515Z,90.03
2019-04-28T03:33:11.043Z,91.00
2019-04-28T03:48:11.512Z,91.88
2019-04-28T04:03:12.033Z,92.66
2019-04-28T04:18:12.321Z,94.55
2019-04-28T04:33:12.460Z,96.09
2019-04-28T04:48:12.479Z,95.52
2019-04-28T05:03:12.658Z,96.08
2019-04-28T05:18:12.771Z,95.87
2019-04-28T05:33:13.376Z,96.60
2019-04-28T05:48:14.016Z,97.12
2019-04-28T06:03:14.191Z,97.16
2019-04-28T06:18:14.847Z,97.99
2019-04-28T06:33:15.610Z,98.35
2019-04-28T06:48:16.222Z,98.45
2019-04-28T07:03:22.926Z,95.95
2019-04-28T07:18:21.920Z,94.52
2019-04-28T07:33:22.457Z,93.13
2019-04-28T07:48:23.153Z,93.04
2019-04-28T08:03:23.806Z,91.35
2019-04-28T08:18:24.167Z,88.72
2019-04-28T08:33:24.253Z,88.62
2019-04-28T08:48:24.817Z,86.69
2019-04-28T09:03:24.665Z,82.40
2019-04-28T09:18:24.927Z,80.58
2019-04-28T09:33:25.019Z,76.80
2019-04-28T09:48:25.314Z,73.94
2019-04-28T10:03:25.462Z,73.64
2019-04-28T10:18:25.787Z,77.86
2019-04-28T10:33:27.231Z,70.92
2019-04-28T10:48:27.627Z,71.47
2019-04-28T11:03:27.777Z,71.47
2019-04-28T11:18:28.205Z,63.26
2019-04-28T11:33:28.340Z,61.79
2019-04-28T11:48:28.731Z,63.72
2019-04-28T12:03:28.770Z,65.19
2019-04-28T12:18:29.649Z,67.50
2019-04-28T12:33:29.744Z,67.19
2019-04-28T12:48:32.683Z,68.71
2019-04-28T13:03:33.318Z,69.46
2019-04-28T13:18:33.733Z,67.46
2019-04-28T13:33:33.924Z,66.69
2019-04-28T13:48:34.243Z,63.95
2019-04-28T14:03:34.465Z,58.31
2019-04-28T14:18:34.650Z,58.03
2019-04-28T14:33:34.872Z,55.98
2019-04-28T14:48:35.235Z,58.09
2019-04-28T15:03:35.404Z,58.49
2019-04-28T15:18:35.586Z,59.41
2019-04-28T15:33:35.854Z,56.51
2019-04-28T15:48:36.015Z,53.83
2019-04-28T16:03:36.264Z,51.81
2019-04-28T16:18:36.415Z,53.22
2019-04-28T16:33:36.508Z,54.46
2019-04-28T16:48:36.937Z,57.65
2019-04-28T17:03:38.532Z,59.16
2019-04-28T17:18:56.628Z,62.72
2019-04-28T17:33:58.486Z,64.28
2019-04-28T17:48:59.107Z,66.68
2019-04-28T18:03:59.359Z,67.46
2019-04-28T18:21:10.391Z,71.97
2019-04-28T18:36:10.607Z,73.94
2019-04-28T18:51:10.755Z,75.75
2019-04-28T19:06:10.881Z,78.11
2019-04-28T19:21:11.121Z,79.27
2019-04-28T19:36:11.335Z,81.05
2019-04-28T19:51:11.529Z,83.00
2019-04-28T20:06:11.673Z,83.86
2019-04-28T20:21:11.904Z,84.92
2019-04-28T20:36:13.100Z,84.82
2019-04-28T20:51:13.311Z,86.19
2019-04-28T21:06:13.523Z,86.65
2019-04-28T21:21:13.806Z,86.65
2019-04-28T21:36:14.142Z,86.75
2019-04-28T21:51:14.352Z,87.37
2019-04-28T22:06:14.659Z,86.85
2019-04-28T22:21:14.980Z,86.85
2019-04-28T22:36:15.265Z,86.33
2019-04-28T22:51:15.485Z,86.89
2019-04-28T23:06:15.795Z,86.24
2019-04-28T23:21:15.916Z,86.44
2019-04-28T23:36:16.003Z,86.07
2019-04-28T23:51:16.135Z,86.68
